createdAt,value
2019-04-25T00:00:47.993Z,15.28
2019-04-25T00:02:51.745Z,16.35
2019-04-25T00:04:55.658Z,14.35
2019-04-25T00:06:59.874Z,15.03
2019-04-25T00:09:06.813Z,13.75
2019-04-25T00:11:11.699Z,13.50
2019-04-25T00:13:15.993Z,13.28
2019-04-25T00:15:19.725Z,13.20
2019-04-25T00:17:23.383Z,13.13
2019-04-25T00:19:26.986Z,12.75
2019-04-25T00:21:34.929Z,12.75
2019-04-25T00:23:41.838Z,12.25
2019-04-25T00:25:51.215Z,14.47
2019-04-25T00:27:55.409Z,14.13
2019-04-25T00:29:59.206Z,12.80
2019-04-25T00:32:03.321Z,13.38
2019-04-25T00:34:08.717Z,13.28
2019-04-25T00:36:12.445Z,13.25
2019-04-25T00:38:16.572Z,12.20
2019-04-25T00:40:21.895Z,12.47
2019-04-25T00:42:25.789Z,13.10
2019-04-25T00:44:29.822Z,13.78
2019-04-25T00:46:33.551Z,14.18
2019-04-25T00:48:37.202Z,13.70
2019-04-25T00:50:42.374Z,14.15
2019-04-25T00:52:46.601Z,13.45
2019-04-25T00:54:50.833Z,13.35
2019-04-25T00:56:55.766Z,14.13
2019-04-25T00:59:17.973Z,13.65
2019-04-25T01:01:26.015Z,14.03
2019-04-25T01:03:34.059Z,13.85
2019-04-25T01:05:37.789Z,13.70
2019-04-25T01:07:42.225Z,13.90
2019-04-25T01:09:46.274Z,14.07
2019-04-25T01:11:50.053Z,12.88
2019-04-25T01:13:54.399Z,13.18
2019-04-25T01:15:58.146Z,12.68
2019-04-25T01:18:01.879Z,13.70
2019-04-25T01:20:08.510Z,13.38
2019-04-25T01:22:14.375Z,12.33
2019-04-25T01:24:18.811Z,13.90
2019-04-25T01:26:23.929Z,13.55
2019-04-25T01:28:28.393Z,13.50
2019-04-25T01:30:33.910Z,13.83
2019-04-25T01:32:39.179Z,13.30
2019-04-25T01:34:44.489Z,12.93
2019-04-25T01:36:54.743Z,13.22
2019-04-25T01:39:11.742Z,12.85
2019-04-25T01:41:29.066Z,13.93
2019-04-25T01:43:48.343Z,14.47
2019-04-25T01:45:53.704Z,12.75
2019-04-25T01:47:58.295Z,12.63
2019-04-25T01:50:03.822Z,14.98
2019-04-25T01:52:07.910Z,15.00
2019-04-25T01:54:12.047Z,12.95
2019-04-25T01:56:17.576Z,14.60
2019-04-25T01:58:21.371Z,13.10
2019-04-25T02:00:35.594Z,12.82
2019-04-25T02:02:39.941Z,13.38
2019-04-25T02:04:44.353Z,13.90
2019-04-25T02:06:48.242Z,13.70
2019-04-25T02:08:52.070Z,13.98
2019-04-25T02:11:10.133Z,13.55
2019-04-25T02:13:20.981Z,12.88
2019-04-25T02:15:26.699Z,13.30
2019-04-25T02:17:30.451Z,14.10
2019-04-25T02:19:35.800Z,12.95
2019-04-25T02:21:39.674Z,11.73
2019-04-25T02:23:44.265Z,12.65
2019-04-25T02:25:48.037Z,17.48
2019-04-25T02:27:52.787Z,12.40
2019-04-25T02:29:57.270Z,12.43
2019-04-25T02:32:07.887Z,13.30
2019-04-25T02:34:08.610Z,11.97
2019-04-25T02:36:14.483Z,12.20
2019-04-25T02:38:18.005Z,13.25
2019-04-25T02:40:23.784Z,12.37
2019-04-25T02:42:27.790Z,13.53
2019-04-25T02:44:34.490Z,12.82
2019-04-25T02:46:49.272Z,12.30
2019-04-25T02:48:56.202Z,11.80
2019-04-25T02:51:01.590Z,12.40
2019-04-25T02:53:25.001Z,13.03
2019-04-25T02:55:31.848Z,12.45
2019-04-25T02:57:34.640Z,12.47
2019-04-25T02:59:38.631Z,12.98
2019-04-25T03:01:44.517Z,13.60
2019-04-25T03:03:47.918Z,12.60
2019-04-25T03:05:51.641Z,13.93
2019-04-25T03:07:57.709Z,13.08
2019-04-25T03:10:01.992Z,14.23
2019-04-25T03:12:07.677Z,13.10
2019-04-25T03:14:11.275Z,13.28
2019-04-25T03:16:15.346Z,12.40
2019-04-25T03:18:20.699Z,13.22
2019-04-25T03:20:29.031Z,12.85
2019-04-25T03:22:34.581Z,12.95
2019-04-25T03:24:38.547Z,13.95
2019-04-25T03:26:44.210Z,11.93
2019-04-25T03:28:47.717Z,13.85
2019-04-25T03:30:51.438Z,13.40
2019-04-25T03:32:56.215Z,13.00
2019-04-25T03:35:01.215Z,13.00
2019-04-25T03:37:05.631Z,12.50
2019-04-25T03:39:10.153Z,11.90
2019-04-25T03:41:14.787Z,11.90
2019-04-25T03:43:18.504Z,13.65
2019-04-25T03:45:23.614Z,12.10
2019-04-25T03:47:27.393Z,12.82
2019-04-25T03:49:31.123Z,13.05
2019-04-25T03:51:34.845Z,11.63
2019-04-25T03:53:38.504Z,12.75
2019-04-25T03:55:44.365Z,12.70
2019-04-25T03:57:48.349Z,14.55
2019-04-25T03:59:53.512Z,20.00
2019-04-25T04:01:57.434Z,16.23
2019-04-25T04:04:01.229Z,14.33
2019-04-25T04:06:07.308Z,14.07
2019-04-25T04:08:11.813Z,12.37
2019-04-25T04:10:15.691Z,13.70
2019-04-25T04:12:19.482Z,11.48
2019-04-25T04:14:23.943Z,11.22
2019-04-25T04:16:29.478Z,12.65
2019-04-25T04:18:34.774Z,11.63
2019-04-25T04:20:53.484Z,13.95
2019-04-25T04:22:59.081Z,14.28
2019-04-25T04:25:03.845Z,13.40
2019-04-25T04:27:10.734Z,13.60
2019-04-25T04:29:15.271Z,13.30
2019-04-25T04:31:19.226Z,37.23
2019-04-25T04:33:31.917Z,34.30
2019-04-25T04:35:29.901Z,48.80
2019-04-25T04:37:33.954Z,29.10
2019-04-25T04:39:37.817Z,11.20
2019-04-25T04:41:41.777Z,9.93
2019-04-25T04:43:45.673Z,9.05
2019-04-25T04:45:49.316Z,9.28
2019-04-25T04:47:54.089Z,9.98
2019-04-25T04:49:58.097Z,9.18
2019-04-25T04:52:01.819Z,9.40
2019-04-25T04:54:05.541Z,8.83
2019-04-25T04:56:09.660Z,9.68
2019-04-25T04:58:14.988Z,8.70
2019-04-25T05:00:19.086Z,9.00
2019-04-25T05:02:25.110Z,8.30
2019-04-25T05:04:46.834Z,8.95
2019-04-25T05:07:01.129Z,8.63
2019-04-25T05:09:16.406Z,9.73
2019-04-25T05:11:20.125Z,8.33
2019-04-25T05:13:24.260Z,7.53
2019-04-25T05:15:28.410Z,9.03
2019-04-25T05:17:32.061Z,10.20
2019-04-25T05:19:35.717Z,8.38
2019-04-25T05:21:39.661Z,8.48
2019-04-25T05:23:44.302Z,8.73
2019-04-25T05:25:48.470Z,8.30
2019-04-25T05:28:01.975Z,8.40
2019-04-25T05:29:57.654Z,9.18
2019-04-25T05:32:01.538Z,9.83
2019-04-25T05:34:05.266Z,8.15
2019-04-25T05:36:08.933Z,9.23
2019-04-25T05:38:14.203Z,9.75
2019-04-25T05:40:18.305Z,8.63
2019-04-25T05:42:24.820Z,7.70
2019-04-25T05:44:29.005Z,8.60
2019-04-25T05:46:34.148Z,8.18
2019-04-25T05:48:38.326Z,8.53
2019-04-25T05:50:43.683Z,7.58
2019-04-25T05:52:47.878Z,7.67
2019-04-25T05:54:51.648Z,7.62
2019-04-25T05:56:55.550Z,7.85
2019-04-25T05:58:59.341Z,7.70
2019-04-25T06:01:03.359Z,7.58
2019-04-25T06:03:07.019Z,7.35
2019-04-25T06:05:11.085Z,7.17
2019-04-25T06:07:15.041Z,8.05
2019-04-25T06:09:24.042Z,6.58
2019-04-25T06:11:30.743Z,6.75
2019-04-25T06:13:43.281Z,7.60
2019-04-25T06:15:53.263Z,7.85
2019-04-25T06:17:59.094Z,9.23
2019-04-25T06:20:06.190Z,7.45
2019-04-25T06:22:13.044Z,7.47
2019-04-25T06:24:21.082Z,7.30
2019-04-25T06:26:34.758Z,6.30
2019-04-25T06:28:34.526Z,6.22
2019-04-25T06:30:37.625Z,6.62
2019-04-25T06:32:41.350Z,7.97
2019-04-25T06:34:45.103Z,8.03
2019-04-25T06:36:48.693Z,6.55
2019-04-25T06:38:54.089Z,6.80
2019-04-25T06:40:57.809Z,7.60
2019-04-25T06:43:03.382Z,6.87
2019-04-25T06:45:15.725Z,6.55
2019-04-25T06:47:37.273Z,5.80
2019-04-25T06:49:43.210Z,6.20
2019-04-25T06:51:54.645Z,6.50
2019-04-25T06:53:58.325Z,6.15
2019-04-25T06:56:03.509Z,5.78
2019-04-25T06:58:12.080Z,6.35
2019-04-25T07:00:14.838Z,6.00
2019-04-25T07:02:18.963Z,7.30
2019-04-25T07:04:25.122Z,6.25
2019-04-25T07:06:28.042Z,6.08
2019-04-25T07:08:31.797Z,5.85
2019-04-25T07:10:36.347Z,6.40
2019-04-25T07:12:40.025Z,6.30
2019-04-25T07:14:44.170Z,9.00
2019-04-25T07:16:47.893Z,7.00
2019-04-25T07:18:53.331Z,6.08
2019-04-25T07:20:57.029Z,6.47
2019-04-25T07:23:01.081Z,7.03
2019-04-25T07:25:08.186Z,5.70
2019-04-25T07:27:19.115Z,4.92
2019-04-25T07:29:40.698Z,6.12
2019-04-25T07:31:48.507Z,5.58
2019-04-25T07:34:03.268Z,5.47
2019-04-25T07:36:07.380Z,5.50
2019-04-25T07:38:10.946Z,6.20
2019-04-25T07:40:16.706Z,5.78
2019-04-25T07:42:21.423Z,5.67
2019-04-25T07:44:38.662Z,5.65
2019-04-25T07:46:30.661Z,8.58
2019-04-25T07:48:37.166Z,5.45
2019-04-25T07:50:39.617Z,6.33
2019-04-25T07:52:44.277Z,6.67
2019-04-25T07:54:50.027Z,6.03
2019-04-25T07:56:55.092Z,5.92
2019-04-25T07:58:58.994Z,5.75
2019-04-25T08:01:03.786Z,5.50
2019-04-25T08:03:07.579Z,5.45
2019-04-25T08:05:14.364Z,5.90
2019-04-25T08:07:18.625Z,5.30
2019-04-25T08:09:24.312Z,5.28
2019-04-25T08:11:28.114Z,5.00
2019-04-25T08:13:34.250Z,5.40
2019-04-25T08:15:43.767Z,5.75
2019-04-25T08:17:58.277Z,5.50
2019-04-25T08:20:03.976Z,5.42
2019-04-25T08:22:07.831Z,4.25
2019-04-25T08:24:11.721Z,5.12
2019-04-25T08:26:15.747Z,4.87
2019-04-25T08:28:20.331Z,5.10
2019-04-25T08:30:24.124Z,5.53
2019-04-25T08:32:27.850Z,4.97
2019-04-25T08:34:32.849Z,5.33
2019-04-25T08:36:38.545Z,5.42
2019-04-25T08:38:44.059Z,5.25
2019-04-25T08:40:47.895Z,5.55
2019-04-25T08:42:51.619Z,5.53
2019-04-25T08:44:55.389Z,5.25
2019-04-25T08:46:59.038Z,5.05
2019-04-25T08:49:06.133Z,5.65
2019-04-25T08:51:11.273Z,4.80
2019-04-25T08:53:15.417Z,5.30
2019-04-25T08:55:38.231Z,6.00
2019-04-25T08:57:55.768Z,5.92
2019-04-25T09:00:01.132Z,5.92
2019-04-25T09:02:06.543Z,5.55
2019-04-25T09:04:22.211Z,5.80
2019-04-25T09:06:26.362Z,5.65
2019-04-25T09:08:30.237Z,5.22
2019-04-25T09:10:36.846Z,6.37
2019-04-25T09:12:40.216Z,5.20
2019-04-25T09:14:46.296Z,5.45
2019-04-25T09:16:49.246Z,5.60
2019-04-25T09:18:53.963Z,5.90
2019-04-25T09:20:58.555Z,5.72
2019-04-25T09:23:04.903Z,6.25
2019-04-25T09:25:09.150Z,6.83
2019-04-25T09:27:13.492Z,7.70
2019-04-25T09:29:19.778Z,7.45
2019-04-25T09:31:23.602Z,6.62
2019-04-25T09:33:27.451Z,5.67
2019-04-25T09:35:33.306Z,6.62
2019-04-25T09:37:36.982Z,8.28
2019-04-25T09:39:51.773Z,5.25
2019-04-25T09:41:55.566Z,5.67
2019-04-25T09:44:00.922Z,6.58
2019-04-25T09:46:09.118Z,5.12
2019-04-25T09:48:17.568Z,5.83
2019-04-25T09:50:38.659Z,6.15
2019-04-25T09:52:44.380Z,5.22
2019-04-25T09:54:50.122Z,5.42
2019-04-25T09:56:57.361Z,6.10
2019-04-25T09:59:05.673Z,5.00
2019-04-25T10:01:15.899Z,6.05
2019-04-25T10:03:19.554Z,5.00
2019-04-25T10:05:23.947Z,5.30
2019-04-25T10:07:27.641Z,4.70
2019-04-25T10:09:31.436Z,5.47
2019-04-25T10:11:35.093Z,5.55
2019-04-25T10:13:40.003Z,5.55
2019-04-25T10:15:50.396Z,5.25
2019-04-25T10:17:54.511Z,4.92
2019-04-25T10:19:58.598Z,5.62
2019-04-25T10:22:03.397Z,4.87
2019-04-25T10:24:07.514Z,5.35
2019-04-25T10:26:13.188Z,5.62
2019-04-25T10:28:16.909Z,5.42
2019-04-25T10:30:23.561Z,5.65
2019-04-25T10:32:27.097Z,4.83
2019-04-25T10:34:30.924Z,4.95
2019-04-25T10:36:34.641Z,4.20
2019-04-25T10:38:40.259Z,5.17
2019-04-25T10:40:46.494Z,5.17
2019-04-25T10:42:51.015Z,4.92
2019-04-25T10:44:56.629Z,5.15
2019-04-25T10:47:00.464Z,5.75
2019-04-25T10:49:04.435Z,5.28
2019-04-25T10:51:08.896Z,5.78
2019-04-25T10:53:12.713Z,7.00
2019-04-25T10:55:16.394Z,5.30
2019-04-25T10:57:20.401Z,5.12
2019-04-25T10:59:24.357Z,5.80
2019-04-25T11:01:29.022Z,5.28
2019-04-25T11:03:51.714Z,5.12
2019-04-25T11:05:56.066Z,5.42
2019-04-25T11:07:59.878Z,6.03
2019-04-25T11:10:04.570Z,4.55
2019-04-25T11:12:12.999Z,4.85
2019-04-25T11:14:16.763Z,4.53
2019-04-25T11:16:20.890Z,5.15
2019-04-25T11:18:24.629Z,5.08
2019-04-25T11:20:30.558Z,5.28
2019-04-25T11:22:34.703Z,5.10
2019-04-25T11:24:39.256Z,5.05
2019-04-25T11:26:47.200Z,5.72
2019-04-25T11:28:48.837Z,5.45
2019-04-25T11:30:54.497Z,6.08
2019-04-25T11:32:59.365Z,4.00
2019-04-25T11:35:03.603Z,6.50
2019-04-25T11:37:08.845Z,5.40
2019-04-25T11:39:30.810Z,3.98
2019-04-25T11:41:34.601Z,5.00
2019-04-25T11:43:38.330Z,5.17
2019-04-25T11:45:42.325Z,4.33
2019-04-25T11:47:47.131Z,5.45
2019-04-25T11:49:52.414Z,5.35
2019-04-25T11:51:56.342Z,5.67
2019-04-25T11:54:00.367Z,4.97
2019-04-25T11:56:04.189Z,8.30
2019-04-25T11:58:08.094Z,4.65
2019-04-25T12:00:21.884Z,6.20
2019-04-25T12:02:19.238Z,8.40
2019-04-25T12:04:24.197Z,7.47
2019-04-25T12:06:28.891Z,5.37
2019-04-25T12:08:33.551Z,5.62
2019-04-25T12:10:39.386Z,5.55
2019-04-25T12:12:46.290Z,6.42
2019-04-25T12:14:49.526Z,6.20
2019-04-25T12:16:56.129Z,7.08
2019-04-25T12:18:58.978Z,5.60
2019-04-25T12:21:04.153Z,5.75
2019-04-25T12:23:10.506Z,6.15
2019-04-25T12:25:15.084Z,5.45
2019-04-25T12:27:19.222Z,5.10
2019-04-25T12:29:24.396Z,5.37
2019-04-25T12:31:28.535Z,5.78
2019-04-25T12:33:32.330Z,5.60
2019-04-25T12:35:35.981Z,5.60
2019-04-25T12:37:39.701Z,5.30
2019-04-25T12:39:43.778Z,4.47
2019-04-25T12:41:49.072Z,5.83
2019-04-25T12:44:12.822Z,6.10
2019-04-25T12:46:21.071Z,4.95
2019-04-25T12:48:27.109Z,5.45
2019-04-25T12:50:30.580Z,5.33
2019-04-25T12:52:34.651Z,7.58
2019-04-25T12:54:38.691Z,6.30
2019-04-25T12:56:43.299Z,5.97
2019-04-25T12:58:48.106Z,6.80
2019-04-25T13:00:55.198Z,5.87
2019-04-25T13:02:57.276Z,5.37
2019-04-25T13:05:01.527Z,5.75
2019-04-25T13:07:06.391Z,5.33
2019-04-25T13:09:12.138Z,5.78
2019-04-25T13:11:15.865Z,4.92
2019-04-25T13:13:20.086Z,7.05
2019-04-25T13:15:25.793Z,4.37
2019-04-25T13:17:29.330Z,5.00
2019-04-25T13:19:34.196Z,4.67
2019-04-25T13:21:37.893Z,4.83
2019-04-25T13:23:41.613Z,7.00
2019-04-25T13:25:45.505Z,4.87
2019-04-25T13:27:57.589Z,5.25
2019-04-25T13:30:20.589Z,4.05
2019-04-25T13:32:35.126Z,5.37
2019-04-25T13:34:40.429Z,4.90
2019-04-25T13:36:44.373Z,4.95
2019-04-25T13:38:47.962Z,5.10
2019-04-25T13:40:51.687Z,4.70
2019-04-25T13:42:56.441Z,4.97
2019-04-25T13:45:00.718Z,4.37
2019-04-25T13:47:06.161Z,5.00
2019-04-25T13:49:10.293Z,4.42
2019-04-25T13:51:14.251Z,4.60
2019-04-25T13:53:17.917Z,4.65
2019-04-25T13:55:23.694Z,4.85
2019-04-25T13:57:28.277Z,9.33
2019-04-25T13:59:32.636Z,8.45
2019-04-25T14:01:36.688Z,11.10
2019-04-25T14:03:44.394Z,9.73
2019-04-25T14:05:51.594Z,7.62
2019-04-25T14:07:55.599Z,5.17
2019-04-25T14:09:59.273Z,4.55
2019-04-25T14:12:04.016Z,4.60
2019-04-25T14:14:08.003Z,4.30
2019-04-25T14:16:25.358Z,5.47
2019-04-25T14:18:32.651Z,4.50
2019-04-25T14:20:41.391Z,5.40
2019-04-25T14:22:45.493Z,7.70
2019-04-25T14:24:49.225Z,6.80
2019-04-25T14:26:55.933Z,5.45
2019-04-25T14:29:00.561Z,10.15
2019-04-25T14:31:04.909Z,10.72
2019-04-25T14:33:09.023Z,9.55
2019-04-25T14:35:14.349Z,12.23
2019-04-25T14:37:18.243Z,6.20
2019-04-25T14:39:23.704Z,8.23
2019-04-25T14:41:28.130Z,6.55
2019-04-25T14:43:32.333Z,5.85
2019-04-25T14:45:44.387Z,5.03
2019-04-25T14:47:42.238Z,4.37
2019-04-25T14:49:46.298Z,4.47
2019-04-25T14:51:49.973Z,4.92
2019-04-25T14:53:54.039Z,5.80
2019-04-25T14:56:04.910Z,7.92
2019-04-25T14:58:10.518Z,6.55
2019-04-25T15:00:35.322Z,4.03
2019-04-25T15:02:39.070Z,4.85
2019-04-25T15:04:42.930Z,4.72
2019-04-25T15:06:46.676Z,4.45
2019-04-25T15:08:50.535Z,4.40
2019-04-25T15:10:54.565Z,6.30
2019-04-25T15:12:58.619Z,11.78
2019-04-25T15:15:02.405Z,7.60
2019-04-25T15:17:06.401Z,5.97
2019-04-25T15:19:10.158Z,5.17
2019-04-25T15:21:13.813Z,7.72
2019-04-25T15:23:17.962Z,27.62
2019-04-25T15:25:21.621Z,4.17
2019-04-25T15:27:25.289Z,5.62
2019-04-25T15:29:29.015Z,4.42
2019-04-25T15:31:33.752Z,4.28
2019-04-25T15:33:37.942Z,4.95
2019-04-25T15:35:46.377Z,5.03
2019-04-25T15:37:55.227Z,4.25
2019-04-25T15:40:00.526Z,7.22
2019-04-25T15:42:22.540Z,5.90
2019-04-25T15:44:56.100Z,5.08
2019-04-25T15:47:01.883Z,4.47
2019-04-25T15:49:06.774Z,4.80
2019-04-25T15:51:10.866Z,5.33
2019-04-25T15:53:14.867Z,8.38
2019-04-25T15:55:19.338Z,5.45
2019-04-25T15:57:23.442Z,5.50
2019-04-25T15:59:27.469Z,6.10
2019-04-25T16:01:32.415Z,4.62
2019-04-25T16:03:36.169Z,5.08
2019-04-25T16:05:40.346Z,4.40
2019-04-25T16:07:44.960Z,4.78
2019-04-25T16:09:48.990Z,5.20
2019-04-25T16:11:52.713Z,4.92
2019-04-25T16:13:58.311Z,5.10
2019-04-25T16:16:01.919Z,4.85
2019-04-25T16:18:06.761Z,6.40
2019-04-25T16:20:10.973Z,8.65
2019-04-25T16:22:15.563Z,7.22
2019-04-25T16:24:19.215Z,8.88
2019-04-25T16:26:23.207Z,6.28
2019-04-25T16:28:27.632Z,5.55
2019-04-25T16:30:34.454Z,5.58
2019-04-25T16:32:38.607Z,5.25
2019-04-25T16:34:42.882Z,5.70
2019-04-25T16:36:46.796Z,6.05
2019-04-25T16:38:50.826Z,7.58
2019-04-25T16:40:54.573Z,6.87
2019-04-25T16:42:59.902Z,11.85
2019-04-25T16:45:05.120Z,7.47
2019-04-25T16:47:08.925Z,9.05
2019-04-25T16:49:12.675Z,9.28
2019-04-25T16:51:17.213Z,11.73
2019-04-25T16:53:21.051Z,7.58
2019-04-25T16:55:25.035Z,9.28
2019-04-25T16:57:29.042Z,11.53
2019-04-25T16:59:33.569Z,8.93
2019-04-25T17:01:38.609Z,9.08
2019-04-25T17:03:43.185Z,9.78
2019-04-25T17:05:47.677Z,10.28
2019-04-25T17:07:51.675Z,11.43
2019-04-25T17:09:55.711Z,12.10
2019-04-25T17:11:59.402Z,13.30
2019-04-25T17:14:05.090Z,16.55
2019-04-25T17:16:11.434Z,15.83
2019-04-25T17:18:16.876Z,16.12
2019-04-25T17:20:22.556Z,11.65
2019-04-25T17:22:26.377Z,11.80
2019-04-25T17:24:31.116Z,14.90
2019-04-25T17:26:35.049Z,12.95
2019-04-25T17:28:41.198Z,8.78
2019-04-25T17:30:46.987Z,7.58
2019-04-25T17:32:56.073Z,7.65
2019-04-25T17:35:01.550Z,8.98
2019-04-25T17:37:07.230Z,8.70
2019-04-25T17:39:29.123Z,8.85
2019-04-25T17:41:33.144Z,15.05
2019-04-25T17:43:37.012Z,14.05
2019-04-25T17:45:41.718Z,22.42
2019-04-25T17:47:54.375Z,88.12
2019-04-25T17:49:52.429Z,65.95
2019-04-25T17:51:55.990Z,74.80
2019-04-25T17:53:59.947Z,80.47
2019-04-25T17:56:03.673Z,69.90
2019-04-25T17:58:07.566Z,62.95
2019-04-25T18:00:29.001Z,44.67
2019-04-25T18:02:33.638Z,37.10
2019-04-25T18:04:38.302Z,33.35
2019-04-25T18:06:43.027Z,24.98
2019-04-25T18:08:47.714Z,21.17
2019-04-25T18:10:52.286Z,45.08
2019-04-25T18:12:56.014Z,33.78
2019-04-25T18:15:01.317Z,40.35
2019-04-25T18:17:05.520Z,57.38
2019-04-25T18:19:14.528Z,48.02
2019-04-25T18:21:19.239Z,106.37
2019-04-25T18:23:35.148Z,78.02
2019-04-25T18:25:57.631Z,56.63
2019-04-25T18:28:09.745Z,46.50
2019-04-25T18:30:14.593Z,27.35
2019-04-25T18:32:18.330Z,30.00
2019-04-25T18:34:23.838Z,39.65
2019-04-25T18:36:32.856Z,29.15
2019-04-25T18:38:47.502Z,18.27
2019-04-25T18:40:59.150Z,18.48
2019-04-25T18:43:04.525Z,41.30
2019-04-25T18:45:10.572Z,29.12
2019-04-25T18:47:14.229Z,17.35
2019-04-25T18:49:18.909Z,21.77
2019-04-25T18:51:23.062Z,26.85
2019-04-25T18:53:45.650Z,53.35
2019-04-25T18:55:54.649Z,41.65
2019-04-25T18:58:00.019Z,36.67
2019-04-25T19:00:16.469Z,36.85
2019-04-25T19:02:22.150Z,36.73
2019-04-25T19:04:29.958Z,35.98
2019-04-25T19:06:34.014Z,73.20
2019-04-25T19:08:38.558Z,69.80
2019-04-25T19:10:43.691Z,74.07
2019-04-25T19:12:47.430Z,86.65
2019-04-25T19:14:51.750Z,78.07
2019-04-25T19:16:55.878Z,70.83
2019-04-25T19:18:59.798Z,53.58
2019-04-25T19:21:04.645Z,50.52
2019-04-25T19:23:08.735Z,68.20
2019-04-25T19:25:13.246Z,78.10
2019-04-25T19:27:23.997Z,109.00
2019-04-25T19:29:24.292Z,65.37
2019-04-25T19:31:28.489Z,51.05
2019-04-25T19:33:35.893Z,46.53
2019-04-25T19:35:39.362Z,65.97
2019-04-25T19:37:43.908Z,60.20
2019-04-25T19:39:49.421Z,49.73
2019-04-25T19:42:11.165Z,53.00
2019-04-25T19:44:16.540Z,65.22
2019-04-25T19:46:22.154Z,53.75
2019-04-25T19:48:26.192Z,34.83
2019-04-25T19:50:30.327Z,21.27
2019-04-25T19:52:34.082Z,22.82
2019-04-25T19:54:38.239Z,23.50
2019-04-25T19:56:42.668Z,18.87
2019-04-25T19:58:47.403Z,19.07
2019-04-25T20:00:51.615Z,17.67
2019-04-25T20:02:59.654Z,18.80
2019-04-25T20:05:10.984Z,24.10
2019-04-25T20:07:22.426Z,33.88
2019-04-25T20:09:44.862Z,16.42
2019-04-25T20:11:51.437Z,12.18
2019-04-25T20:13:55.305Z,10.53
2019-04-25T20:15:59.029Z,11.10
2019-04-25T20:18:02.751Z,11.57
2019-04-25T20:20:08.025Z,14.68
2019-04-25T20:22:12.053Z,13.38
2019-04-25T20:24:15.801Z,17.00
2019-04-25T20:26:19.954Z,13.18
2019-04-25T20:28:23.750Z,10.98
2019-04-25T20:30:29.264Z,11.35
2019-04-25T20:32:32.997Z,11.95
2019-04-25T20:34:36.678Z,15.35
2019-04-25T20:36:40.713Z,12.70
2019-04-25T20:38:47.134Z,11.48
2019-04-25T20:40:51.711Z,12.23
2019-04-25T20:42:56.235Z,11.48
2019-04-25T20:45:00.131Z,12.07
2019-04-25T20:47:03.861Z,12.65
2019-04-25T20:49:07.581Z,12.82
2019-04-25T20:51:11.582Z,13.53
2019-04-25T20:53:15.297Z,13.22
2019-04-25T20:55:19.191Z,12.55
2019-04-25T20:57:23.778Z,14.15
2019-04-25T20:59:27.518Z,15.88
2019-04-25T21:01:31.650Z,15.13
2019-04-25T21:03:35.622Z,13.83
2019-04-25T21:05:40.064Z,14.30
2019-04-25T21:07:43.794Z,13.38
2019-04-25T21:09:47.721Z,14.00
2019-04-25T21:11:51.516Z,15.43
2019-04-25T21:14:02.829Z,14.70
2019-04-25T21:16:24.303Z,16.07
2019-04-25T21:18:29.994Z,18.60
2019-04-25T21:24:07.062Z,17.57
2019-04-25T21:26:11.105Z,16.60
2019-04-25T21:28:15.075Z,17.27
2019-04-25T21:33:53.752Z,19.45
2019-04-25T21:35:58.066Z,17.05
2019-04-25T21:38:02.483Z,13.80
2019-04-25T21:43:54.389Z,14.98
2019-04-25T21:45:58.464Z,16.45
2019-04-25T21:48:03.028Z,17.60
2019-04-25T21:53:54.481Z,13.78
2019-04-25T21:55:59.660Z,14.83
2019-04-25T21:58:04.217Z,15.68
2019-04-25T22:03:55.691Z,19.35
2019-04-25T22:06:00.736Z,21.23
2019-04-25T22:08:04.905Z,17.42
2019-04-25T22:13:53.506Z,15.95
2019-04-25T22:15:57.602Z,15.55
2019-04-25T22:18:02.264Z,15.08
2019-04-25T22:20:08.044Z,14.03
2019-04-25T22:22:11.661Z,15.35
2019-04-25T22:24:16.714Z,16.90
2019-04-25T22:26:21.646Z,16.40
2019-04-25T22:28:25.605Z,14.50
2019-04-25T22:30:29.966Z,15.88
2019-04-25T22:32:44.362Z,15.32
2019-04-25T22:35:05.730Z,15.80
2019-04-25T22:37:09.562Z,14.83
2019-04-25T22:39:14.672Z,14.63
2019-04-25T22:41:18.620Z,14.30
2019-04-25T22:43:22.553Z,14.68
2019-04-25T22:45:27.001Z,15.72
2019-04-25T22:47:30.862Z,18.98
2019-04-25T22:49:34.641Z,14.68
2019-04-25T22:51:38.506Z,15.13
2019-04-25T22:53:42.638Z,16.37
2019-04-25T22:55:46.295Z,15.45
2019-04-25T22:57:50.093Z,15.00
2019-04-25T22:59:53.789Z,16.50
2019-04-25T23:01:59.158Z,16.05
2019-04-25T23:04:08.084Z,19.73
2019-04-25T23:06:12.340Z,16.85
2019-04-25T23:08:16.038Z,16.25
2019-04-25T23:10:19.761Z,16.37
2019-04-25T23:12:23.421Z,17.15
2019-04-25T23:14:27.083Z,16.52
2019-04-25T23:16:31.203Z,15.75
2019-04-25T23:18:34.922Z,18.20
2019-04-25T23:20:38.905Z,16.37
2019-04-25T23:22:43.244Z,17.23
2019-04-25T23:24:48.821Z,17.45
2019-04-25T23:27:10.032Z,17.02
2019-04-25T23:29:14.579Z,18.10
2019-04-25T23:31:20.341Z,16.02
2019-04-25T23:33:24.797Z,17.73
2019-04-25T23:35:29.821Z,17.17
2019-04-25T23:37:34.176Z,18.62
2019-04-25T23:39:38.063Z,26.40
2019-04-25T23:41:41.861Z,24.67
2019-04-25T23:43:45.592Z,21.05
2019-04-25T23:45:49.382Z,17.90
2019-04-25T23:47:53.408Z,16.40
2019-04-25T23:49:57.482Z,15.28
2019-04-25T23:52:01.189Z,16.80
2019-04-25T23:54:07.464Z,19.27
2019-04-25T23:56:11.638Z,20.37
2019-04-25T23:58:15.643Z,18.25
